createdAt,value
2018-02-15T00:00:33.408Z,-0.20
2018-02-15T00:03:44.930Z,-0.10
2018-02-15T00:06:49.910Z,-0.10
2018-02-15T00:09:58.674Z,-0.10
2018-02-15T00:13:03.200Z,-0.10
2018-02-15T00:16:15.870Z,-0.30
2018-02-15T00:19:22.979Z,-0.40
2018-02-15T00:22:28.160Z,-0.20
2018-02-15T00:25:34.567Z,-0.30
2018-02-15T00:28:58.249Z,-0.20
2018-02-15T00:32:04.575Z,-0.40
2018-02-15T00:35:09.823Z,-0.40
2018-02-15T00:38:15.628Z,-0.20
2018-02-15T00:41:21.429Z,-0.10
2018-02-15T00:44:27.094Z,-0.20
2018-02-15T00:47:33.632Z,-0.20
2018-02-15T00:50:38.680Z,-0.20
2018-02-15T00:53:45.154Z,-0.20
2018-02-15T00:56:50.094Z,-0.30
2018-02-15T00:59:57.736Z,-0.30
2018-02-15T01:03:05.596Z,-0.40
2018-02-15T01:06:11.041Z,-0.20
2018-02-15T01:09:21.003Z,-0.20
2018-02-15T01:12:27.702Z,0.20
2018-02-15T01:15:33.195Z,0.20
2018-02-15T01:18:39.065Z,0.20
2018-02-15T01:21:43.954Z,0.20
2018-02-15T01:24:52.680Z,0.20
2018-02-15T01:28:00.386Z,0.20
2018-02-15T01:31:08.003Z,0.30
2018-02-15T01:34:22.088Z,0.30
2018-02-15T01:37:35.364Z,0.30
2018-02-15T01:40:46.516Z,0.30
2018-02-15T01:43:51.623Z,0.10
2018-02-15T01:46:57.607Z,0.00
2018-02-15T01:50:15.317Z,-0.10
2018-02-15T01:53:20.949Z,-0.10
2018-02-15T01:56:27.364Z,0.30
2018-02-15T01:59:33.093Z,0.30
2018-02-15T02:02:41.838Z,0.50
2018-02-15T02:05:51.157Z,0.50
2018-02-15T02:09:08.456Z,0.50
2018-02-15T02:12:20.483Z,0.50
2018-02-15T02:15:31.288Z,0.40
2018-02-15T02:18:38.088Z,0.50
2018-02-15T02:21:45.421Z,0.50
2018-02-15T02:24:56.630Z,0.50
2018-02-15T02:28:05.276Z,0.50
2018-02-15T02:31:11.465Z,0.70
2018-02-15T02:34:23.068Z,0.40
2018-02-15T02:37:30.181Z,0.20
2018-02-15T02:40:36.290Z,0.20
2018-02-15T02:43:46.984Z,0.50
2018-02-15T02:46:54.397Z,0.20
2018-02-15T02:50:00.978Z,0.10
2018-02-15T02:53:06.605Z,0.20
2018-02-15T02:56:12.478Z,0.10
2018-02-15T02:59:24.708Z,0.10
2018-02-15T03:02:34.244Z,0.10
2018-02-15T03:05:40.139Z,0.30
2018-02-15T03:08:52.556Z,0.40
2018-02-15T03:11:58.324Z,0.30
2018-02-15T03:15:04.391Z,0.30
2018-02-15T03:18:16.476Z,0.50
2018-02-15T03:21:21.333Z,0.50
2018-02-15T03:28:00.772Z,0.50
2018-02-15T03:31:07.648Z,0.30
2018-02-15T03:34:14.915Z,0.40
2018-02-15T03:37:26.590Z,0.40
2018-02-15T03:40:31.732Z,0.50
2018-02-15T03:43:49.143Z,0.50
2018-02-15T03:46:54.117Z,0.50
2018-02-15T03:49:59.553Z,0.60
2018-02-15T03:53:05.368Z,0.60
2018-02-15T03:56:10.845Z,0.50
2018-02-15T03:59:15.979Z,0.60
2018-02-15T04:02:24.632Z,0.50
2018-02-15T04:05:29.821Z,0.50
2018-02-15T04:08:36.068Z,0.70
2018-02-15T04:11:41.497Z,0.70
2018-02-15T04:14:53.464Z,0.50
2018-02-15T04:18:02.380Z,0.70
2018-02-15T04:21:07.623Z,0.70
2018-02-15T04:24:12.777Z,0.50
2018-02-15T04:27:18.607Z,0.30
2018-02-15T04:30:32.823Z,0.20
2018-02-15T04:33:42.796Z,0.20
2018-02-15T04:36:50.676Z,0.20
2018-02-15T04:39:56.305Z,0.00
2018-02-15T04:43:01.427Z,-0.20
2018-02-15T04:46:07.056Z,-0.10
2018-02-15T04:49:12.636Z,0.00
2018-02-15T04:52:19.951Z,0.00
2018-02-15T04:55:28.144Z,0.00
2018-02-15T04:58:33.751Z,0.00
2018-02-15T05:01:38.648Z,0.00
2018-02-15T05:04:44.477Z,-0.10
2018-02-15T05:07:49.553Z,-0.10
2018-02-15T05:11:01.960Z,-0.10
2018-02-15T05:14:08.733Z,0.10
2018-02-15T05:17:14.023Z,0.10
2018-02-15T05:20:25.319Z,0.00
2018-02-15T05:23:35.379Z,-0.10
2018-02-15T05:26:41.560Z,0.00
2018-02-15T05:29:46.316Z,0.00
2018-02-15T05:32:51.591Z,0.00
2018-02-15T05:39:30.801Z,0.30
2018-02-15T05:42:39.120Z,0.40
2018-02-15T05:45:49.423Z,0.40
2018-02-15T05:48:54.524Z,0.50
2018-02-15T05:52:00.924Z,0.50
2018-02-15T05:55:06.812Z,0.50
2018-02-15T05:58:22.572Z,0.60
2018-02-15T06:01:28.312Z,0.60
2018-02-15T06:04:33.764Z,0.50
2018-02-15T06:07:40.250Z,0.50
2018-02-15T06:10:45.704Z,0.60
2018-02-15T06:13:50.576Z,0.40
2018-02-15T06:16:55.866Z,0.70
2018-02-15T06:20:00.838Z,0.50
2018-02-15T06:23:06.152Z,0.50
2018-02-15T06:26:11.188Z,0.40
2018-02-15T06:29:17.640Z,0.40
2018-02-15T06:32:22.634Z,0.30
2018-02-15T06:35:27.840Z,0.20
2018-02-15T06:38:33.632Z,0.10
2018-02-15T06:41:39.340Z,0.10
2018-02-15T06:44:44.192Z,0.10
2018-02-15T06:47:49.784Z,0.10
2018-02-15T06:50:55.310Z,0.00
2018-02-15T06:54:00.476Z,0.10
2018-02-15T06:57:07.203Z,0.10
2018-02-15T07:00:12.277Z,0.00
2018-02-15T07:03:20.597Z,0.00
2018-02-15T07:06:27.101Z,0.00
2018-02-15T07:09:32.466Z,0.00
2018-02-15T07:12:39.080Z,-0.10
2018-02-15T07:15:44.187Z,-0.10
2018-02-15T07:18:49.194Z,-0.10
2018-02-15T07:21:54.017Z,-0.10
2018-02-15T07:25:00.432Z,0.10
2018-02-15T07:28:05.206Z,0.10
2018-02-15T07:31:10.227Z,0.30
2018-02-15T07:34:15.234Z,0.30
2018-02-15T07:37:20.079Z,0.30
2018-02-15T07:40:24.948Z,0.30
2018-02-15T07:43:30.076Z,0.30
2018-02-15T07:46:35.411Z,0.40
2018-02-15T07:49:40.709Z,0.40
2018-02-15T07:52:46.314Z,0.50
2018-02-15T07:55:51.109Z,0.50
2018-02-15T07:58:56.280Z,0.50
2018-02-15T08:02:01.676Z,0.60
2018-02-15T08:05:08.005Z,0.90
2018-02-15T08:08:13.024Z,0.90
2018-02-15T08:11:18.309Z,0.70
2018-02-15T08:14:24.010Z,0.90
2018-02-15T08:17:31.395Z,0.90
2018-02-15T08:20:37.289Z,1.00
2018-02-15T08:23:42.167Z,1.00
2018-02-15T08:26:47.580Z,1.00
2018-02-15T08:29:52.222Z,0.90
2018-02-15T08:32:57.773Z,0.80
2018-02-15T08:36:03.121Z,0.60
2018-02-15T08:39:08.960Z,0.90
2018-02-15T08:42:13.569Z,0.80
2018-02-15T08:45:18.818Z,0.90
2018-02-15T08:48:24.101Z,0.90
2018-02-15T08:51:30.288Z,1.30
2018-02-15T08:54:37.141Z,1.30
2018-02-15T08:57:42.537Z,1.50
2018-02-15T09:00:47.637Z,1.70
2018-02-15T09:03:52.439Z,1.80
2018-02-15T09:06:57.968Z,1.70
2018-02-15T09:10:02.823Z,2.30
2018-02-15T09:13:07.775Z,2.40
2018-02-15T09:16:13.072Z,2.50
2018-02-15T09:19:18.888Z,2.50
2018-02-15T09:22:29.891Z,2.10
2018-02-15T09:25:34.604Z,1.90
2018-02-15T09:28:39.947Z,1.70
2018-02-15T09:31:45.326Z,1.80
2018-02-15T09:34:51.151Z,2.00
2018-02-15T09:37:57.012Z,1.70
2018-02-15T09:41:02.152Z,1.60
2018-02-15T09:44:08.556Z,1.70
2018-02-15T09:47:14.074Z,1.70
2018-02-15T09:50:19.683Z,1.60
2018-02-15T09:53:24.808Z,1.50
2018-02-15T09:56:30.965Z,1.40
2018-02-15T09:59:36.630Z,1.70
2018-02-15T10:02:43.147Z,1.90
2018-02-15T10:05:48.896Z,1.90
2018-02-15T10:08:54.340Z,1.90
2018-02-15T10:11:59.522Z,1.70
2018-02-15T10:15:04.992Z,1.90
2018-02-15T10:18:10.244Z,1.70
2018-02-15T10:21:15.593Z,1.60
2018-02-15T10:24:20.612Z,1.70
2018-02-15T10:27:25.348Z,1.60
2018-02-15T10:30:30.400Z,1.70
2018-02-15T10:33:35.591Z,1.60
2018-02-15T10:36:41.064Z,1.80
2018-02-15T10:39:45.784Z,1.70
2018-02-15T10:42:51.523Z,1.80
2018-02-15T10:45:56.944Z,1.70
2018-02-15T10:49:02.520Z,1.70
2018-02-15T10:52:07.561Z,1.70
2018-02-15T10:55:12.951Z,1.60
2018-02-15T10:58:18.049Z,1.50
2018-02-15T11:01:30.074Z,1.40
2018-02-15T11:04:41.336Z,1.40
2018-02-15T11:07:46.896Z,1.60
2018-02-15T11:10:51.883Z,1.50
2018-02-15T11:13:57.535Z,1.70
2018-02-15T11:17:03.419Z,1.90
2018-02-15T11:20:09.389Z,1.90
2018-02-15T11:23:14.541Z,1.70
2018-02-15T11:26:19.675Z,1.70
2018-02-15T11:29:25.144Z,1.90
2018-02-15T11:32:30.215Z,2.20
2018-02-15T11:35:36.739Z,2.50
2018-02-15T11:38:42.263Z,2.50
2018-02-15T11:41:48.983Z,2.80
2018-02-15T11:44:54.421Z,2.70
2018-02-15T11:48:03.134Z,2.70
2018-02-15T11:51:07.587Z,2.80
2018-02-15T11:54:13.043Z,3.00
2018-02-15T11:57:21.647Z,3.30
2018-02-15T12:00:27.972Z,3.10
2018-02-15T12:03:35.820Z,3.20
2018-02-15T12:06:47.052Z,3.00
2018-02-15T12:09:52.211Z,3.10
2018-02-15T12:12:57.928Z,3.20
2018-02-15T12:16:03.678Z,2.90
2018-02-15T12:19:08.980Z,3.00
2018-02-15T12:22:13.884Z,3.00
2018-02-15T12:25:19.429Z,3.00
2018-02-15T12:28:24.488Z,3.00
2018-02-15T12:31:29.652Z,3.10
2018-02-15T12:34:46.383Z,3.20
2018-02-15T12:37:51.764Z,3.00
2018-02-15T12:40:56.944Z,3.20
2018-02-15T12:44:14.420Z,3.10
2018-02-15T12:47:19.799Z,3.30
2018-02-15T12:50:25.508Z,3.00
2018-02-15T12:53:30.812Z,3.20
2018-02-15T12:56:43.754Z,3.20
2018-02-15T12:59:48.982Z,3.20
2018-02-15T13:02:54.646Z,3.40
2018-02-15T13:05:59.755Z,3.40
2018-02-15T13:09:05.860Z,3.50
2018-02-15T13:12:10.734Z,3.50
2018-02-15T13:15:15.800Z,3.40
2018-02-15T13:18:21.175Z,3.60
2018-02-15T13:21:27.844Z,3.60
2018-02-15T13:24:33.636Z,3.70
2018-02-15T13:27:44.851Z,3.80
2018-02-15T13:30:50.558Z,3.90
2018-02-15T13:33:56.187Z,3.70
2018-02-15T13:37:01.491Z,3.60
2018-02-15T13:40:06.505Z,3.60
2018-02-15T13:43:11.847Z,3.60
2018-02-15T13:46:17.076Z,3.50
2018-02-15T13:49:31.035Z,3.40
2018-02-15T13:52:36.570Z,3.20
2018-02-15T13:55:42.036Z,3.10
2018-02-15T13:58:48.214Z,3.00
2018-02-15T14:01:54.126Z,2.60
2018-02-15T14:05:00.578Z,2.60
2018-02-15T14:08:06.736Z,2.70
2018-02-15T14:11:11.998Z,2.80
2018-02-15T14:14:17.604Z,2.80
2018-02-15T14:17:22.487Z,2.80
2018-02-15T14:20:28.379Z,2.60
2018-02-15T14:23:34.519Z,2.80
2018-02-15T14:26:39.606Z,2.80
2018-02-15T14:29:45.165Z,3.00
2018-02-15T14:32:52.193Z,3.30
2018-02-15T14:35:57.467Z,3.30
2018-02-15T14:39:02.855Z,3.30
2018-02-15T14:42:08.170Z,3.40
2018-02-15T14:45:13.952Z,3.40
2018-02-15T14:48:20.636Z,3.50
2018-02-15T14:51:25.308Z,3.50
2018-02-15T14:54:30.900Z,3.70
2018-02-15T14:57:36.178Z,3.70
2018-02-15T15:00:41.211Z,3.70
2018-02-15T15:03:46.492Z,3.70
2018-02-15T15:06:51.516Z,3.70
2018-02-15T15:09:56.689Z,3.70
2018-02-15T15:13:02.409Z,3.70
2018-02-15T15:16:07.696Z,3.70
2018-02-15T15:19:13.341Z,3.70
2018-02-15T15:22:18.503Z,3.70
2018-02-15T15:25:23.892Z,3.70
2018-02-15T15:28:29.468Z,3.70
2018-02-15T15:31:35.944Z,3.70
2018-02-15T15:34:41.703Z,3.70
2018-02-15T15:37:47.148Z,3.70
2018-02-15T15:40:52.724Z,3.60
2018-02-15T15:43:58.153Z,3.60
2018-02-15T15:47:04.124Z,3.50
2018-02-15T15:50:09.449Z,3.50
2018-02-15T15:53:14.962Z,3.50
2018-02-15T15:56:20.818Z,3.60
2018-02-15T15:59:26.511Z,3.60
2018-02-15T16:02:32.012Z,3.60
2018-02-15T16:05:38.488Z,3.60
2018-02-15T16:08:44.076Z,3.70
2018-02-15T16:11:49.748Z,3.60
2018-02-15T16:14:55.868Z,3.60
2018-02-15T16:18:01.328Z,3.70
2018-02-15T16:21:07.303Z,3.70
2018-02-15T16:24:13.141Z,3.60
2018-02-15T16:27:18.199Z,3.60
2018-02-15T16:30:25.087Z,3.50
2018-02-15T16:33:30.423Z,3.50
2018-02-15T16:36:36.327Z,3.60
2018-02-15T16:39:41.692Z,3.50
2018-02-15T16:42:47.881Z,3.50
2018-02-15T16:45:52.851Z,3.50
2018-02-15T16:48:59.039Z,3.60
2018-02-15T16:52:04.696Z,3.60
2018-02-15T16:55:09.487Z,3.50
2018-02-15T16:58:14.963Z,3.50
2018-02-15T17:01:20.586Z,3.50
2018-02-15T17:04:26.380Z,3.50
2018-02-15T17:07:32.711Z,3.40
2018-02-15T17:10:39.761Z,3.40
2018-02-15T17:13:45.149Z,3.40
2018-02-15T17:16:50.108Z,3.50
2018-02-15T17:19:54.864Z,3.50
2018-02-15T17:23:00.093Z,3.50
2018-02-15T17:26:05.649Z,3.50
2018-02-15T17:29:11.490Z,3.50
2018-02-15T17:32:16.271Z,3.60
2018-02-15T17:35:21.224Z,3.60
2018-02-15T17:38:26.131Z,3.60
2018-02-15T17:41:31.192Z,3.60
2018-02-15T17:44:36.249Z,3.60
2018-02-15T17:47:43.676Z,3.50
2018-02-15T17:50:48.855Z,3.50
2018-02-15T17:53:55.065Z,3.60
2018-02-15T17:57:00.480Z,3.60
2018-02-15T18:00:06.239Z,3.60
2018-02-15T18:03:11.328Z,3.60
2018-02-15T18:06:16.738Z,3.70
2018-02-15T18:09:21.759Z,3.70
2018-02-15T18:12:27.436Z,3.80
2018-02-15T18:15:32.548Z,3.80
2018-02-15T18:18:37.287Z,3.80
2018-02-15T18:21:42.872Z,3.80
2018-02-15T18:24:47.919Z,3.90
2018-02-15T18:27:53.152Z,3.80
2018-02-15T18:30:58.872Z,3.80
2018-02-15T18:34:04.168Z,3.80
2018-02-15T18:37:09.755Z,3.80
2018-02-15T18:40:15.018Z,3.90
2018-02-15T18:43:19.991Z,4.00
2018-02-15T18:46:25.325Z,4.00
2018-02-15T18:49:30.268Z,4.10
2018-02-15T18:52:35.468Z,4.00
2018-02-15T18:55:41.359Z,4.00
2018-02-15T18:58:48.595Z,4.00
2018-02-15T19:01:53.780Z,4.00
2018-02-15T19:04:59.064Z,4.00
2018-02-15T19:08:04.400Z,4.10
2018-02-15T19:11:12.491Z,4.10
2018-02-15T19:14:17.483Z,4.20
2018-02-15T19:17:23.231Z,4.30
2018-02-15T19:20:29.192Z,4.20
2018-02-15T19:23:34.499Z,4.20
2018-02-15T19:26:40.175Z,4.20
2018-02-15T19:29:45.871Z,4.20
2018-02-15T19:32:51.112Z,4.20
2018-02-15T19:35:56.653Z,4.30
2018-02-15T19:39:01.614Z,4.40
2018-02-15T19:42:06.962Z,4.40
2018-02-15T19:45:12.129Z,4.40
2018-02-15T19:48:17.504Z,4.40
2018-02-15T19:51:23.315Z,4.30
2018-02-15T19:54:29.053Z,4.30
2018-02-15T19:57:35.519Z,4.30
2018-02-15T20:00:41.711Z,4.40
2018-02-15T20:03:47.586Z,4.30
2018-02-15T20:06:53.255Z,4.40
2018-02-15T20:09:58.616Z,4.40
2018-02-15T20:13:04.346Z,4.50
2018-02-15T20:16:10.436Z,4.50
2018-02-15T20:19:17.450Z,4.50
2018-02-15T20:22:22.621Z,4.50
2018-02-15T20:25:28.135Z,4.60
2018-02-15T20:28:34.611Z,4.70
2018-02-15T20:31:40.120Z,4.70
2018-02-15T20:34:46.079Z,4.70
2018-02-15T20:37:58.077Z,4.70
2018-02-15T20:41:03.299Z,4.70
2018-02-15T20:44:09.172Z,4.50
2018-02-15T20:47:14.893Z,4.40
2018-02-15T20:50:26.640Z,4.40
2018-02-15T20:53:38.683Z,4.40
2018-02-15T20:56:44.252Z,4.40
2018-02-15T20:59:49.366Z,4.50
2018-02-15T21:02:54.600Z,4.50
2018-02-15T21:06:00.484Z,4.40
2018-02-15T21:09:05.500Z,4.40
2018-02-15T21:12:11.378Z,4.40
2018-02-15T21:15:16.464Z,4.40
2018-02-15T21:18:21.805Z,4.40
2018-02-15T21:21:26.868Z,4.40
2018-02-15T21:24:32.056Z,4.40
2018-02-15T21:27:37.804Z,4.40
2018-02-15T21:30:44.471Z,4.50
2018-02-15T21:33:50.076Z,4.50
2018-02-15T21:37:01.917Z,4.60
2018-02-15T21:40:07.851Z,4.70
2018-02-15T21:43:18.056Z,4.70
2018-02-15T21:46:24.889Z,4.70
2018-02-15T21:49:29.914Z,4.70
2018-02-15T21:52:35.623Z,4.80
2018-02-15T21:55:41.045Z,4.80
2018-02-15T21:58:46.498Z,4.80
2018-02-15T22:01:53.025Z,4.80
2018-02-15T22:04:58.754Z,4.80
2018-02-15T22:08:03.629Z,4.70
2018-02-15T22:11:09.616Z,4.70
2018-02-15T22:14:15.186Z,4.70
2018-02-15T22:17:20.151Z,4.70
2018-02-15T22:20:24.935Z,4.70
2018-02-15T22:23:29.904Z,4.70
2018-02-15T22:26:35.688Z,4.70
2018-02-15T22:29:40.508Z,4.60
2018-02-15T22:32:46.219Z,4.70
2018-02-15T22:35:51.493Z,4.70
2018-02-15T22:38:56.400Z,4.70
2018-02-15T22:42:02.170Z,4.80
2018-02-15T22:45:07.277Z,5.00
2018-02-15T22:48:12.912Z,4.60
2018-02-15T22:51:18.256Z,4.60
2018-02-15T22:54:23.615Z,4.60
2018-02-15T22:57:29.103Z,4.50
2018-02-15T23:00:34.837Z,4.70
2018-02-15T23:03:40.580Z,4.60
2018-02-15T23:06:47.188Z,4.70
2018-02-15T23:09:53.084Z,4.70
2018-02-15T23:12:58.880Z,4.60
2018-02-15T23:16:04.574Z,4.70
2018-02-15T23:19:09.919Z,4.70
2018-02-15T23:22:14.952Z,4.70
2018-02-15T23:25:19.964Z,4.60
2018-02-15T23:28:25.312Z,4.70
2018-02-15T23:31:30.973Z,4.70
2018-02-15T23:34:36.068Z,4.70
2018-02-15T23:37:41.349Z,4.80
2018-02-15T23:40:47.281Z,4.80
2018-02-15T23:43:52.278Z,4.80
2018-02-15T23:46:58.765Z,4.80
2018-02-15T23:50:04.394Z,4.80
2018-02-15T23:53:10.138Z,4.80
2018-02-15T23:56:15.146Z,4.90
2018-02-15T23:59:20.540Z,4.90
